Time;durP1;ratioP1;P1;durP2;ratioP2;P2;SDS_P1;SDS_P2;PMS_P1;PMS_P2;Temp;Humidity;BMP_temperature;BMP_pressure;BME280_temperature;BME280_humidity;BME280_pressure;Samples;Min_cycle;Max_cycle;Signal;HPM_P1;HPM_P2
2021/11/01 00:04:03;;;;;;;26.42;24.00;;;;;;;10.15;67.74;98728.28;10498043;28;20496;-74
2021/11/01 00:09:04;;;;;;;25.80;23.88;;;;;;;10.28;67.45;98718.88;10499210;28;20040;-75
2021/11/01 00:14:09;;;;;;;26.73;24.35;;;;;;;10.22;67.63;98713.91;10497905;28;20549;-74
2021/11/01 00:19:10;;;;;;;25.65;23.65;;;;;;;10.15;67.92;98715.16;10480530;28;20098;-74
2021/11/01 00:24:12;;;;;;;26.77;24.52;;;;;;;9.98;68.47;98716.00;10497714;28;20052;-74
2021/11/01 00:29:13;;;;;;;27.77;25.52;;;;;;;10.03;68.17;98711.38;10496696;28;20040;-75
2021/11/01 00:34:15;;;;;;;27.20;24.88;;;;;;;9.83;69.47;98705.34;10498649;28;20127;-75
2021/11/01 00:39:17;;;;;;;26.15;24.13;;;;;;;9.86;69.03;98692.06;10463505;28;20052;-75
2021/11/01 00:44:18;;;;;;;27.83;25.23;;;;;;;10.01;68.75;98700.97;10497655;28;20068;-74
2021/11/01 00:49:20;;;;;;;25.55;23.70;;;;;;;9.77;69.57;98702.19;10497219;28;20086;-75
2021/11/01 00:54:22;;;;;;;26.90;24.70;;;;;;;9.90;68.90;98705.03;10497390;28;20055;-75
2021/11/01 00:59:23;;;;;;;26.75;24.33;;;;;;;9.71;69.74;98710.38;10497067;28;20421;-75
2021/11/01 01:04:25;;;;;;;26.98;24.65;;;;;;;9.82;69.58;98711.50;10497994;28;20041;-75
2021/11/01 01:09:27;;;;;;;28.20;25.48;;;;;;;9.76;69.75;98703.94;10496803;28;20029;-75
2021/11/01 01:14:30;;;;;;;25.83;23.63;;;;;;;9.45;71.00;98704.59;10497501;28;20055;-75
2021/11/01 01:19:44;;;;;;;25.77;23.70;;;;;;;9.41;71.11;98703.06;10497881;28;20489;-75
2021/11/01 01:24:46;;;;;;;27.42;24.83;;;;;;;9.56;70.83;98701.44;10479384;28;20102;-75
2021/11/01 01:29:48;;;;;;;26.90;24.70;;;;;;;9.44;71.13;98697.66;10479536;28;20040;-75
2021/11/01 01:34:50;;;;;;;26.05;24.05;;;;;;;9.31;71.69;98694.78;10496530;28;20517;-75
2021/11/01 01:39:52;;;;;;;28.77;25.98;;;;;;;9.19;71.85;98678.78;10480013;28;20645;-75
2021/11/01 01:44:53;;;;;;;29.20;26.60;;;;;;;9.32;72.31;98678.13;10485463;28;20509;-75
2021/11/01 01:49:55;;;;;;;26.88;24.67;;;;;;;9.42;72.06;98675.06;10503362;28;20048;-75
2021/11/01 01:54:57;;;;;;;30.63;27.88;;;;;;;9.33;72.38;98677.19;10503379;28;20101;-75
2021/11/01 01:59:58;;;;;;;29.00;26.33;;;;;;;9.26;72.55;98677.59;10485086;28;20048;-75
2021/11/01 02:05:00;;;;;;;30.00;27.50;;;;;;;9.23;72.81;98670.69;10484682;28;20567;-74
2021/11/01 02:10:09;;;;;;;28.65;26.20;;;;;;;9.24;72.54;98671.53;10503692;28;20550;-75
2021/11/01 02:15:19;;;;;;;30.90;28.00;;;;;;;9.34;72.83;98670.16;10502570;28;20041;-75
2021/11/01 02:20:38;;;;;;;30.15;27.63;;;;;;;9.33;72.43;98671.94;10502648;28;20036;-76
2021/11/01 02:25:49;;;;;;;30.45;27.65;;;;;;;9.28;72.84;98665.22;10484124;28;20457;-75
2021/11/01 02:30:52;;;;;;;30.38;27.80;;;;;;;9.35;73.03;98669.28;10502768;28;20051;-75
2021/11/01 02:35:54;;;;;;;27.73;25.33;;;;;;;9.34;72.79;98654.44;10502467;28;20079;-75
2021/11/01 02:40:56;;;;;;;31.15;28.20;;;;;;;9.39;72.39;98655.09;10484087;28;20044;-75
2021/11/01 02:45:58;;;;;;;30.98;27.88;;;;;;;9.20;73.31;98655.09;10502023;28;20044;-75
2021/11/01 02:51:00;;;;;;;32.03;28.67;;;;;;;9.25;73.33;98662.75;10500684;28;20044;-75
2021/11/01 02:56:03;;;;;;;29.38;27.00;;;;;;;9.42;72.80;98656.69;10501384;28;20459;-76
2021/11/01 03:01:07;;;;;;;31.77;28.77;;;;;;;9.32;73.10;98658.91;10484004;28;20048;-74
2021/11/01 03:06:11;;;;;;;31.42;28.52;;;;;;;9.34;72.78;98659.69;10502222;28;20397;-75
2021/11/01 03:11:14;;;;;;;30.92;28.40;;;;;;;9.27;73.24;98650.44;10501362;28;20575;-74
2021/11/01 03:16:16;;;;;;;30.00;27.27;;;;;;;9.32;73.30;98654.53;10483018;28;20082;-75
2021/11/01 03:21:18;;;;;;;35.00;29.83;;;;;;;9.09;73.83;98660.88;10500710;28;20075;-75
2021/11/01 03:26:23;;;;;;;30.35;27.67;;;;;;;9.02;74.62;98656.00;10482315;28;20060;-75
2021/11/01 03:31:26;;;;;;;35.47;28.60;;;;;;;9.03;74.29;98658.56;10481856;28;20049;-75
2021/11/01 03:36:28;;;;;;;30.85;27.77;;;;;;;9.23;73.89;98664.59;10500681;28;20055;-76
2021/11/01 03:41:31;;;;;;;31.40;28.45;;;;;;;9.16;74.17;98660.56;10499196;28;20110;-75
2021/11/01 03:46:41;;;;;;;32.78;29.75;;;;;;;9.19;74.08;98663.91;10481323;28;20052;-74
2021/11/01 03:51:50;;;;;;;33.00;29.92;;;;;;;9.09;74.33;98668.75;10498748;28;20048;-74
2021/11/01 03:56:53;;;;;;;33.38;30.33;;;;;;;9.09;74.53;98663.50;10499536;28;20067;-75
2021/11/01 04:01:56;;;;;;;33.58;29.98;;;;;;;9.20;74.09;98676.06;10480813;28;20041;-74
2021/11/01 04:06:58;;;;;;;34.17;30.90;;;;;;;9.03;74.67;98676.91;10498931;28;20119;-75
2021/11/01 04:12:00;;;;;;;33.22;30.08;;;;;;;9.01;74.84;98678.72;10498104;28;20524;-74
2021/11/01 04:17:09;;;;;;;35.22;31.85;;;;;;;8.95;75.14;98684.28;10499239;28;20098;-75
2021/11/01 04:22:10;;;;;;;34.40;30.60;;;;;;;9.01;74.44;98680.50;10481111;28;20041;-75
2021/11/01 04:27:12;;;;;;;35.80;31.92;;;;;;;8.86;75.42;98684.69;10497930;28;20053;-76
2021/11/01 04:32:21;;;;;;;35.55;32.05;;;;;;;8.84;75.24;98676.03;10479700;28;20052;-76
2021/11/01 04:37:24;;;;;;;35.45;31.75;;;;;;;8.76;75.79;98673.78;10498307;28;20106;-75
2021/11/01 04:53:09;;;;;;;35.20;31.52;;;;;;;8.91;75.35;98677.47;10480147;28;20094;-75
2021/11/01 04:58:11;;;;;;;36.97;33.28;;;;;;;8.94;75.55;98682.59;10497633;28;20048;-75
2021/11/01 05:08:27;;;;;;;36.15;32.33;;;;;;;9.01;75.33;98673.50;10498585;28;20045;-74
2021/11/01 05:13:31;;;;;;;28.15;25.48;;;;;;;8.81;75.83;98679.69;10497935;28;20040;-76
2021/11/01 05:24:15;;;;;;;;;;;;;;;8.77;76.83;98677.28;10419872;28;20408;-71
2021/11/01 05:29:17;;;;;;;38.83;34.80;;;;;;;8.93;75.69;98680.84;10419164;28;19928;-71
2021/11/01 05:34:19;;;;;;;37.45;33.58;;;;;;;8.78;76.71;98685.03;10418390;28;20045;-72
2021/11/01 05:39:22;;;;;;;37.97;34.08;;;;;;;8.82;76.43;98699.72;10417806;28;20080;-72
2021/11/01 05:44:24;;;;;;;38.78;34.10;;;;;;;8.61;76.94;98716.41;10418374;28;20061;-71
2021/11/01 05:49:26;;;;;;;43.00;35.83;;;;;;;8.82;76.58;98718.06;10418334;28;20045;-72
2021/11/01 05:54:31;;;;;;;44.03;35.30;;;;;;;8.73;76.36;98718.47;10419773;28;20052;-72
2021/11/01 05:59:46;;;;;;;39.00;35.05;;;;;;;8.82;76.50;98718.06;10488033;28;20040;-71
2021/11/01 06:15:02;;;;;;;38.08;33.58;;;;;;;8.95;76.24;98723.59;10487476;28;20494;-72
2021/11/01 06:20:05;;;;;;;39.25;34.97;;;;;;;9.03;76.10;98731.06;10487843;28;20048;-71
2021/11/01 06:25:09;;;;;;;41.00;34.63;;;;;;;8.96;76.61;98733.13;10485975;28;20049;-71
2021/11/01 06:30:27;;;;;;;38.10;33.92;;;;;;;9.20;76.03;98739.00;10503056;28;20040;-72
2021/11/01 07:18:01;;;;;;;36.70;33.10;;;;;;;10.06;72.49;98808.38;10502967;28;20058;-71
2021/11/01 07:23:35;;;;;;;36.53;32.65;;;;;;;9.95;73.61;98815.91;10502990;28;20470;-72
2021/11/01 08:48:13;;;;;;;35.03;31.80;;;;;;;9.80;79.46;98915.47;10499506;28;20090;-71
2021/11/01 09:20:01;;;;;;;36.95;33.00;;;;;;;10.35;79.80;98917.25;10505850;28;20098;-70
2021/11/01 09:30:37;;;;;;;34.97;31.27;;;;;;;10.72;77.84;98913.69;10505961;28;20048;-71
2021/11/01 09:41:06;;;;;;;34.90;31.52;;;;;;;10.60;78.27;98930.06;10505539;28;20097;-71
2021/11/01 09:46:10;;;;;;;32.90;30.08;;;;;;;10.84;76.72;98935.84;10486877;28;20064;-71
2021/11/01 09:51:13;;;;;;;35.75;32.33;;;;;;;10.49;78.44;98938.47;10470121;28;20052;-70
2021/11/01 09:56:30;;;;;;;33.17;30.00;;;;;;;10.77;75.96;98932.69;10505554;28;20040;-71
2021/11/01 10:01:35;;;;;;;36.22;32.88;;;;;;;10.45;78.69;98936.91;10487541;28;20029;-71
2021/11/01 10:06:37;;;;;;;34.45;30.67;;;;;;;10.71;77.11;98932.97;10504987;28;20040;-71
2021/11/01 10:11:44;;;;;;;35.80;31.95;;;;;;;10.82;76.02;98933.31;10505234;28;20556;-71
2021/11/01 10:22:27;;;;;;;33.67;30.38;;;;;;;10.93;75.88;98922.25;10489703;28;20041;-71
2021/11/01 10:27:40;;;;;;;33.50;30.60;;;;;;;10.93;76.82;98905.63;10505650;28;20082;-71
2021/11/01 10:32:48;;;;;;;32.15;29.20;;;;;;;10.92;76.31;98912.66;10506076;28;20055;-72
2021/11/01 10:38:16;;;;;;;34.28;30.58;;;;;;;11.13;75.14;98920.38;10503216;28;20102;-70
2021/11/01 10:43:41;;;;;;;34.15;30.95;;;;;;;10.98;77.75;98904.47;10485263;28;20064;-70
2021/11/01 11:16:22;;;;;;;38.88;34.67;;;;;;;10.94;81.24;98889.78;10397386;28;20049;-70
2021/11/01 11:21:48;;;;;;;39.53;35.58;;;;;;;10.99;81.49;98879.03;10504637;22;20048;-72
2021/11/01 11:27:13;;;;;;;39.88;35.65;;;;;;;10.98;81.85;98885.19;10525663;28;20393;-72
2021/11/01 11:37:56;;;;;;;39.90;36.03;;;;;;;10.76;83.96;98898.63;10542502;28;20085;-73
2021/11/01 11:43:17;;;;;;;39.28;35.47;;;;;;;11.00;81.87;98886.81;10541089;28;20040;-71
2021/11/01 11:48:23;;;;;;;43.03;38.15;;;;;;;10.71;84.75;98890.09;10521040;28;20044;-73
2021/11/01 11:53:25;;;;;;;43.70;39.13;;;;;;;11.13;83.11;98892.31;10503265;28;20040;-72
2021/11/01 11:58:43;;;;;;;42.63;37.22;;;;;;;10.77;84.57;98885.38;10539909;28;20089;-72
2021/11/01 12:03:45;;;;;;;39.28;35.38;;;;;;;11.04;84.27;98877.84;10522257;28;20036;-72
2021/11/01 12:08:53;;;;;;;41.60;37.17;;;;;;;11.25;83.24;98885.56;10497765;28;20055;-72
2021/11/01 12:19:05;;;;;;;38.72;34.72;;;;;;;11.42;81.10;98896.03;10525298;28;20055;-72
2021/11/01 12:24:09;;;;;;;43.33;37.53;;;;;;;11.11;83.23;98884.50;10522867;28;20045;-72
2021/11/01 12:29:14;;;;;;;39.30;35.15;;;;;;;11.37;81.47;98885.72;10498625;28;20098;-72
2021/11/01 12:34:21;;;;;;;38.05;34.28;;;;;;;11.57;79.57;98882.03;10527279;28;20044;-71
2021/11/01 12:39:34;;;;;;;39.78;35.72;;;;;;;11.42;80.36;98875.00;10539399;28;20226;-72
2021/11/01 12:45:25;;;;;;;38.22;34.30;;;;;;;11.51;80.36;98873.63;10540460;28;20044;-71
2021/11/01 13:01:21;;;;;;;47.28;38.15;;;;;;;10.97;84.87;98865.94;10539711;28;20074;-71
2021/11/01 13:06:38;;;;;;;44.63;37.05;;;;;;;10.89;85.46;98872.53;10539640;28;20075;-72
2021/11/01 13:12:32;;;;;;;41.10;37.08;;;;;;;11.01;84.24;98870.13;10540079;28;20040;-72
2021/11/01 13:22:31;;;;;;;45.90;37.88;;;;;;;10.97;83.88;98875.59;10539348;28;20496;-71
2021/11/01 13:27:58;;;;;;;44.27;36.57;;;;;;;11.08;84.00;98879.41;10538044;28;20093;-73
2021/11/01 13:38:29;;;;;;;42.33;37.78;;;;;;;10.73;85.82;98881.22;10528638;28;20093;-71
2021/11/01 13:43:32;;;;;;;51.90;38.58;;;;;;;10.70;86.49;98873.47;10546502;28;20516;-72
2021/11/01 13:48:34;;;;;;;41.60;37.03;;;;;;;10.82;85.61;98875.47;10546292;28;20078;-72
2021/11/01 13:53:41;;;;;;;47.47;39.35;;;;;;;10.66;87.22;98864.03;10546792;28;20481;-72
2021/11/01 13:58:52;;;;;;;;;;;;;;;10.97;86.82;98873.81;10547696;28;20043;-72
2021/11/01 14:15:13;;;;;;;44.75;38.78;;;;;;;10.84;86.70;98878.00;10546189;28;20553;-71
2021/11/01 14:30:47;;;;;;;52.05;42.40;;;;;;;10.37;89.59;98870.78;10524738;28;20105;-71
2021/11/01 14:58:02;;;;;;;48.97;39.17;;;;;;;10.29;90.41;98875.53;10537601;28;20121;-72
2021/11/01 15:03:18;;;;;;;42.92;37.17;;;;;;;10.26;90.72;98883.56;10543228;28;20044;-72
2021/11/01 15:08:39;;;;;;;48.10;38.45;;;;;;;10.28;90.88;98895.72;10542856;28;20447;-71
2021/11/01 15:18:59;;;;;;;33.40;30.23;;;;;;;10.19;90.92;98898.75;10543278;28;20050;-72
2021/11/01 15:24:24;;;;;;;24.67;22.83;;;;;;;10.08;90.89;98898.41;10544018;28;20131;-72
2021/11/01 15:35:09;;;;;;;18.63;17.25;;;;;;;10.07;90.71;98904.59;10542491;28;20525;-70
2021/11/01 16:17:28;;;;;;;46.78;38.58;;;;;;;9.95;96.07;98913.03;10540480;28;20040;-70
2021/11/01 16:22:30;;;;;;;49.10;37.70;;;;;;;10.23;94.95;98913.44;10540851;28;20512;-70
2021/11/01 16:27:34;;;;;;;53.47;39.60;;;;;;;9.97;95.39;98917.31;10541489;28;20070;-70
2021/11/01 16:32:41;;;;;;;63.50;45.78;;;;;;;9.73;97.53;98921.06;10541439;28;20150;-70
2021/11/01 16:37:51;;;;;;;57.70;42.92;;;;;;;9.56;99.00;98920.06;10540097;28;20044;-69
2021/11/01 16:42:53;;;;;;;56.33;42.72;;;;;;;9.77;98.93;98926.09;10540471;28;20040;-69
2021/11/01 16:47:56;;;;;;;62.85;42.92;;;;;;;9.54;99.64;98926.28;10521933;28;20044;-69
2021/11/01 16:52:58;;;;;;;50.80;38.38;;;;;;;9.48;100.00;98923.97;10538644;28;20074;-69
2021/11/01 16:58:10;;;;;;;52.15;36.92;;;;;;;9.58;99.05;98920.00;10539947;28;20101;-70
2021/11/01 17:03:24;;;;;;;38.30;31.98;;;;;;;9.78;99.14;98922.56;10539039;28;20409;-71
2021/11/01 18:45:05;;;;;;;20.35;18.55;;;;;;;9.19;100.00;98933.09;10422325;28;20052;-76
2021/11/01 18:55:24;;;;;;;19.80;17.70;;;;;;;9.00;100.00;98933.06;10422454;28;20048;-76
2021/11/01 19:00:28;;;;;;;22.85;20.77;;;;;;;8.96;100.00;98934.94;10422034;28;20053;-76
2021/11/01 20:04:09;;;;;;;11.90;10.90;;;;;;;9.03;100.00;98902.31;10418757;28;20052;-75
2021/11/01 20:09:31;;;;;;;12.00;11.00;;;;;;;8.92;100.00;98899.31;10420839;28;20087;-75
2021/11/01 21:29:16;;;;;;;3.22;2.30;;;;;;;8.74;96.35;98859.03;10399463;28;20096;-76
2021/11/01 21:34:27;;;;;;;3.75;2.97;;;;;;;8.65;97.30;98863.81;10399694;28;20037;-76
2021/11/01 21:39:28;;;;;;;4.57;3.97;;;;;;;8.50;98.64;98860.94;10399902;28;20046;-75
2021/11/01 21:44:35;;;;;;;3.75;3.38;;;;;;;8.37;99.72;98856.25;10398023;28;20037;-76
2021/11/01 21:49:36;;;;;;;4.50;3.30;;;;;;;8.33;100.00;98845.88;10399796;28;20451;-76
2021/11/01 21:54:47;;;;;;;3.45;2.90;;;;;;;8.32;100.00;98848.53;10397375;28;20080;-75
2021/11/01 22:16:38;;;;;;;4.18;3.53;;;;;;;8.40;100.00;98836.03;10424487;28;20053;-75
2021/11/01 22:21:05;;;;;;;4.35;3.40;;;;;;;8.27;99.73;98819.94;10423152;28;20046;-76
2021/11/01 22:26:25;;;;;;;4.78;3.88;;;;;;;8.23;100.00;98820.13;10422545;28;20059;-76
2021/11/01 22:42:16;;;;;;;6.63;5.50;;;;;;;8.16;100.00;98816.94;10405730;28;20056;-77
2021/11/01 22:57:42;;;;;;;5.47;4.63;;;;;;;8.26;100.00;98791.22;10424696;28;20441;-76
2021/11/01 23:02:45;;;;;;;5.75;3.50;;;;;;;8.16;100.00;98792.53;10424209;28;20068;-76
2021/11/01 23:34:47;;;;;;;5.68;3.75;;;;;;;8.26;99.85;98744.94;10379648;28;20053;-77
2021/11/01 23:39:49;;;;;;;4.70;3.38;;;;;;;8.48;98.79;98741.44;10381172;28;20411;-78
2021/11/01 23:44:54;;;;;;;4.95;3.33;;;;;;;8.41;98.03;98742.59;10380239;28;20049;-77
2021/11/01 23:49:56;;;;;;;4.43;3.28;;;;;;;8.30;98.06;98737.81;10380196;28;20041;-77
2021/11/01 23:54:57;;;;;;;5.43;3.63;;;;;;;8.03;99.60;98740.69;10403942;28;20041;-77
